首页
METAR-TAF:

METAR-TAF

机场 :

何塞·马蒂国际机场

哈瓦那, 古巴

纬度: 22-59N, 经度: 082-24W, 海拔: 59米

当前天气观测

该预报发布于1小时和3分钟前的05:55 UTC
风速1节,风向多变
温度 20°C
湿度 94%
气压 1014 hPa
能見度: 9000
少量云层高于7000英尺

METAR: MUHA 190555Z VRB01KT 9000 FEW070 20/19 Q1014

时间: 02:58 (06:58 UTC)

预报

该预报发布于1小时和58分钟前的05:00 UTC
预报有效从19日的 06点(UTC)到 20日的 06点(UTC)
风速3节,风向多变
能見度: 9000
少量云层高于3000英尺
成为
从 19日的 15点(UTC)到 19日的 17点(UTC)
风速10节,风向
散云层高于3000英尺
短暂存在
从 19日的 21点(UTC)到 20日的 02点(UTC)
风速10节,风向多变
能見度: 5000
少量云层高于2000英尺, 积雨云.
多云层高于3000英尺
雷暴, 雨
成为
从 20日的 04点(UTC)到 20日的 06点(UTC)
风速3节,风向
少量云层高于3000英尺

TAF: MUHA 190500Z 1906/2006 VRB03KT 9000 FEW030 BECMG 1915/1917 08010KT SCT030 TEMPO 1921/2002 VRB10KT 5000 TSRA FEW020CB BKN030 BECMG 2004/2006 09003KT FEW030

超过4000个机场的气象观测和天气预报(METAR&TAF报告)。

可查询的气象台以黄色和红色小点在地图上表示。

将鼠标移到小点上方,可查看气象台名称。

然后点击查看天气观测和预报。

如需切换地图:点击带黑十字的绿色按钮放大地图;点击带横线的绿色按钮缩小地图;或者点击绿色箭头查看邻近地区的地图。


METAR-TAF: